createdAt,value
2023-12-18T00:01:55.340Z,60.73
2023-12-18T00:04:23.758Z,60.91
2023-12-18T00:06:52.093Z,60.92
2023-12-18T00:09:25.615Z,61.00
2023-12-18T00:11:57.228Z,61.13
2023-12-18T00:14:31.835Z,61.15
2023-12-18T00:17:04.659Z,62.25
2023-12-18T00:19:36.012Z,63.43
2023-12-18T00:22:07.141Z,62.89
2023-12-18T00:24:38.455Z,62.60
2023-12-18T00:27:07.083Z,62.75
2023-12-18T00:29:44.560Z,61.84
2023-12-18T00:32:14.276Z,62.23
2023-12-18T00:34:43.012Z,61.37
2023-12-18T00:37:23.851Z,61.35
2023-12-18T00:39:52.156Z,61.34
2023-12-18T00:42:23.641Z,61.27
2023-12-18T00:44:51.952Z,61.04
2023-12-18T00:47:29.641Z,61.12
2023-12-18T00:49:57.989Z,61.22
2023-12-18T00:52:26.272Z,61.38
2023-12-18T00:54:54.540Z,61.20
2023-12-18T00:57:22.810Z,60.47
2023-12-18T00:59:53.514Z,61.33
2023-12-18T01:02:23.132Z,62.86
2023-12-18T01:04:51.474Z,62.41
2023-12-18T01:07:19.835Z,62.82
2023-12-18T01:09:59.701Z,61.53
2023-12-18T01:12:30.886Z,62.19
2023-12-18T01:14:58.220Z,63.47
2023-12-18T01:17:35.857Z,62.57
2023-12-18T01:20:10.210Z,62.87
2023-12-18T01:22:47.027Z,61.68
2023-12-18T01:25:23.598Z,61.16
2023-12-18T01:27:51.926Z,61.18
2023-12-18T01:30:26.101Z,62.63
2023-12-18T01:32:55.936Z,61.50
2023-12-18T01:35:24.271Z,61.03
2023-12-18T01:37:52.582Z,61.20
2023-12-18T01:40:23.726Z,61.23
2023-12-18T01:42:52.020Z,61.00
2023-12-18T01:45:20.352Z,60.92
2023-12-18T01:47:48.927Z,61.14
2023-12-18T01:50:18.735Z,61.55
2023-12-18T01:52:52.945Z,61.20
2023-12-18T01:55:27.320Z,60.58
2023-12-18T01:57:58.457Z,62.17
2023-12-18T02:00:26.985Z,62.25
2023-12-18T02:02:58.165Z,61.83
2023-12-18T02:05:27.873Z,61.35
2023-12-18T02:08:00.148Z,61.27
2023-12-18T02:10:28.949Z,61.74
2023-12-18T02:13:00.228Z,62.09
2023-12-18T02:15:40.018Z,61.63
2023-12-18T02:18:08.540Z,61.88
2023-12-18T02:20:38.313Z,61.80
2023-12-18T02:23:07.978Z,61.66
2023-12-18T02:25:39.084Z,61.08
2023-12-18T02:28:15.726Z,60.66
2023-12-18T02:30:44.217Z,60.76
2023-12-18T02:33:12.631Z,62.28
2023-12-18T02:35:44.026Z,62.63
2023-12-18T02:38:13.726Z,61.07
2023-12-18T02:40:44.900Z,61.17
2023-12-18T02:43:13.212Z,60.47
2023-12-18T02:45:47.741Z,60.54
2023-12-18T02:48:16.220Z,60.39
2023-12-18T02:50:44.650Z,60.63
2023-12-18T02:53:16.211Z,63.26
2023-12-18T02:55:47.587Z,65.05
2023-12-18T02:58:16.232Z,63.38
2023-12-18T03:00:46.455Z,63.79
2023-12-18T03:03:15.001Z,64.61
2023-12-18T03:05:43.594Z,62.87
2023-12-18T03:08:13.379Z,62.69
2023-12-18T03:10:41.642Z,61.53
2023-12-18T03:13:12.749Z,61.00
2023-12-18T03:15:50.413Z,60.84
2023-12-18T03:18:19.150Z,64.01
2023-12-18T03:20:51.385Z,66.81
2023-12-18T03:23:21.312Z,65.09
2023-12-18T03:25:49.619Z,64.73
2023-12-18T03:28:27.053Z,65.10
2023-12-18T03:30:58.378Z,66.20
2023-12-18T03:33:32.972Z,64.35
2023-12-18T03:36:01.372Z,65.50
2023-12-18T03:38:31.021Z,62.89
2023-12-18T03:41:05.500Z,64.06
2023-12-18T03:43:40.959Z,62.27
2023-12-18T03:46:09.490Z,64.42
2023-12-18T03:48:37.969Z,68.49
2023-12-18T03:51:09.569Z,69.12
2023-12-18T03:53:42.283Z,66.96
2023-12-18T03:56:10.529Z,69.81
2023-12-18T03:58:41.906Z,62.70
2023-12-18T04:01:10.827Z,65.28
2023-12-18T04:03:40.329Z,64.61
2023-12-18T04:06:12.128Z,62.90
2023-12-18T04:08:48.121Z,65.83
2023-12-18T04:11:17.494Z,64.17
2023-12-18T04:13:45.797Z,62.32
2023-12-18T04:16:16.954Z,64.67
2023-12-18T04:18:45.395Z,63.51
2023-12-18T04:21:19.601Z,64.88
2023-12-18T04:23:52.331Z,61.84
2023-12-18T04:26:23.445Z,63.88
2023-12-18T04:28:54.541Z,66.80
2023-12-18T04:31:28.159Z,65.87
2023-12-18T04:33:56.571Z,66.63
2023-12-18T04:36:31.178Z,63.98
2023-12-18T04:39:03.985Z,61.16
2023-12-18T04:41:32.397Z,66.60
2023-12-18T04:44:03.611Z,69.10
2023-12-18T04:46:38.774Z,73.38
2023-12-18T04:49:14.398Z,69.13
2023-12-18T04:51:43.154Z,69.10
2023-12-18T04:54:13.255Z,67.00
2023-12-18T04:56:41.639Z,68.61
2023-12-18T04:59:18.977Z,68.03
2023-12-18T05:01:56.425Z,69.13
2023-12-18T05:04:27.652Z,68.09
2023-12-18T05:06:56.274Z,67.59
2023-12-18T05:09:29.073Z,66.15
2023-12-18T05:12:00.122Z,66.45
2023-12-18T05:14:28.430Z,67.71
2023-12-18T05:16:56.738Z,64.28
2023-12-18T05:19:26.178Z,72.91
2023-12-18T05:22:01.053Z,70.36
2023-12-18T05:24:33.533Z,71.63
2023-12-18T05:27:09.568Z,70.17
2023-12-18T05:29:37.852Z,71.21
2023-12-18T05:32:08.490Z,70.96
2023-12-18T05:34:37.075Z,68.43
2023-12-18T05:37:05.868Z,69.18
2023-12-18T05:39:38.407Z,69.30
2023-12-18T05:42:09.293Z,69.36
2023-12-18T05:44:40.843Z,67.69
2023-12-18T05:47:09.377Z,71.79
2023-12-18T05:49:44.358Z,71.22
2023-12-18T05:52:15.885Z,68.83
2023-12-18T05:54:48.455Z,65.30
2023-12-18T05:57:18.630Z,70.44
2023-12-18T06:02:35.077Z,67.51
2023-12-18T06:05:03.996Z,64.46
2023-12-18T06:07:32.313Z,68.37
2023-12-18T06:10:04.422Z,69.50
2023-12-18T06:12:35.837Z,70.73
2023-12-18T06:15:04.830Z,67.15
2023-12-18T06:17:38.994Z,67.88
2023-12-18T06:20:08.225Z,65.66
2023-12-18T06:22:45.619Z,65.94
2023-12-18T06:25:15.935Z,68.42
2023-12-18T06:27:45.812Z,70.24
2023-12-18T06:30:17.311Z,70.62
2023-12-18T06:32:46.561Z,68.25
2023-12-18T06:35:15.896Z,64.32
2023-12-18T06:37:46.287Z,64.76
2023-12-18T06:40:19.295Z,67.45
2023-12-18T06:42:58.613Z,70.40
2023-12-18T06:45:36.328Z,66.11
2023-12-18T06:48:06.322Z,68.27
2023-12-18T06:50:36.431Z,70.33
2023-12-18T06:53:07.289Z,68.11
2023-12-18T06:55:37.749Z,67.78
2023-12-18T06:58:06.838Z,68.34
2023-12-18T07:00:41.100Z,69.60
2023-12-18T07:03:11.754Z,68.79
2023-12-18T07:05:42.091Z,68.73
2023-12-18T07:08:11.377Z,68.01
2023-12-18T07:10:43.083Z,72.30
2023-12-18T07:15:57.892Z,71.64
2023-12-18T07:18:27.166Z,69.64
2023-12-18T07:20:56.602Z,72.08
2023-12-18T07:23:25.738Z,70.04
2023-12-18T07:25:58.436Z,69.43
2023-12-18T07:28:27.761Z,69.12
2023-12-18T07:30:57.504Z,68.38
2023-12-18T07:33:26.839Z,66.79
2023-12-18T07:35:56.287Z,70.51
2023-12-18T07:38:27.199Z,71.77
2023-12-18T07:43:41.049Z,67.75
2023-12-18T07:46:20.172Z,70.02
2023-12-18T07:48:50.454Z,68.92
2023-12-18T07:51:21.641Z,66.88
2023-12-18T07:53:51.064Z,67.54
2023-12-18T07:56:23.423Z,65.09
2023-12-18T07:58:52.173Z,70.38
2023-12-18T08:01:21.740Z,73.13
2023-12-18T08:03:51.775Z,70.73
2023-12-18T08:06:21.267Z,68.90
2023-12-18T08:08:50.521Z,66.75
2023-12-18T08:11:32.256Z,69.18
2023-12-18T08:14:01.664Z,70.23
2023-12-18T08:16:32.132Z,72.18
2023-12-18T08:19:02.210Z,73.02
2023-12-18T08:21:31.872Z,71.04
2023-12-18T08:24:01.104Z,73.08
2023-12-18T08:26:31.771Z,72.15
2023-12-18T08:29:00.394Z,69.68
2023-12-18T08:31:30.858Z,71.32
2023-12-18T08:33:59.924Z,70.52
2023-12-18T08:36:31.257Z,71.94
2023-12-18T08:39:00.322Z,68.47
2023-12-18T08:41:30.955Z,68.63
2023-12-18T08:44:05.486Z,68.11
2023-12-18T08:46:41.448Z,69.97
2023-12-18T08:49:10.751Z,69.84
2023-12-18T08:51:39.731Z,69.53
2023-12-18T08:54:09.347Z,71.34
2023-12-18T08:56:42.122Z,72.42
2023-12-18T08:59:12.501Z,72.40
2023-12-18T09:01:41.625Z,71.43
2023-12-18T09:04:11.746Z,70.78
2023-12-18T09:06:42.389Z,71.91
2023-12-18T09:09:11.599Z,71.54
2023-12-18T09:11:42.023Z,66.83
2023-12-18T09:14:11.169Z,67.55
2023-12-18T09:16:41.552Z,70.64
2023-12-18T09:19:11.147Z,70.82
2023-12-18T09:21:40.247Z,70.56
2023-12-18T09:24:10.648Z,72.70
2023-12-18T09:26:41.566Z,72.80
2023-12-18T09:29:11.168Z,72.05
2023-12-18T09:31:40.429Z,72.05
2023-12-18T09:34:10.035Z,71.71
2023-12-18T09:36:39.931Z,72.65
2023-12-18T09:39:09.117Z,70.13
2023-12-18T09:41:38.299Z,69.81
2023-12-18T09:44:09.013Z,71.88
2023-12-18T09:46:37.764Z,69.13
2023-12-18T09:49:07.529Z,71.32
2023-12-18T09:51:41.655Z,73.27
2023-12-18T09:54:14.249Z,73.94
2023-12-18T09:56:46.556Z,72.42
2023-12-18T09:59:25.582Z,70.13
2023-12-18T10:01:56.370Z,70.57
2023-12-18T10:04:28.449Z,70.02
2023-12-18T10:07:00.405Z,70.46
2023-12-18T10:09:29.750Z,70.09
2023-12-18T10:11:58.350Z,69.55
2023-12-18T10:14:47.805Z,72.27
2023-12-18T10:17:20.549Z,70.00
2023-12-18T10:19:52.440Z,68.32
2023-12-18T10:22:28.878Z,66.81
2023-12-18T10:25:00.712Z,70.17
2023-12-18T10:27:29.090Z,67.85
2023-12-18T10:30:05.986Z,71.21
2023-12-18T10:32:38.271Z,70.08
2023-12-18T10:35:07.838Z,71.66
2023-12-18T10:37:37.339Z,67.08
2023-12-18T10:40:13.856Z,68.10
2023-12-18T10:42:47.598Z,68.43
2023-12-18T10:45:18.975Z,67.69
2023-12-18T10:47:51.424Z,67.82
2023-12-18T10:50:24.414Z,69.27
2023-12-18T10:52:56.048Z,69.46
2023-12-18T10:55:25.607Z,68.97
2023-12-18T10:57:59.228Z,67.65
2023-12-18T11:00:33.726Z,68.63
2023-12-18T11:03:04.055Z,73.00
2023-12-18T11:05:37.930Z,68.77
2023-12-18T11:08:07.994Z,71.36
2023-12-18T11:10:43.455Z,69.66
2023-12-18T11:13:23.954Z,66.51
2023-12-18T11:16:07.071Z,68.67
2023-12-18T11:18:54.740Z,70.71
2023-12-18T11:21:27.139Z,71.67
2023-12-18T11:24:04.470Z,71.60
2023-12-18T11:26:39.302Z,71.83
2023-12-18T11:29:50.802Z,69.72
2023-12-18T11:32:48.783Z,68.46
2023-12-18T11:35:28.709Z,70.66
2023-12-18T11:38:08.336Z,69.54
2023-12-18T11:40:44.614Z,70.55
2023-12-18T11:43:14.629Z,65.76
2023-12-18T11:45:49.797Z,72.88
2023-12-18T11:48:28.593Z,73.31
2023-12-18T11:51:07.748Z,68.00
2023-12-18T11:53:42.991Z,65.49
2023-12-18T11:56:24.345Z,69.27
2023-12-18T11:58:53.444Z,66.01
2023-12-18T12:01:30.020Z,68.29
2023-12-18T12:04:01.334Z,69.21
2023-12-18T12:06:30.420Z,67.72
2023-12-18T12:08:58.978Z,69.88
2023-12-18T12:11:27.427Z,70.52
2023-12-18T12:13:58.866Z,70.06
2023-12-18T12:16:30.173Z,69.62
2023-12-18T12:19:00.021Z,68.87
2023-12-18T12:21:35.553Z,69.95
2023-12-18T12:24:11.956Z,71.90
2023-12-18T12:26:43.701Z,70.00
2023-12-18T12:29:18.273Z,71.20
2023-12-18T12:31:59.647Z,70.38
2023-12-18T12:34:33.547Z,66.70
2023-12-18T12:37:04.387Z,66.01
2023-12-18T12:39:33.777Z,70.12
2023-12-18T12:42:06.033Z,71.07
2023-12-18T12:44:40.541Z,69.24
2023-12-18T12:47:14.330Z,70.36
2023-12-18T12:49:53.155Z,70.67
2023-12-18T12:52:22.355Z,69.89
2023-12-18T12:54:52.833Z,69.68
2023-12-18T12:57:33.400Z,68.55
2023-12-18T13:00:04.085Z,70.72
2023-12-18T13:03:02.755Z,70.27
2023-12-18T13:05:32.865Z,72.30
2023-12-18T13:08:01.977Z,74.05
2023-12-18T13:10:32.053Z,72.42
2023-12-18T13:13:03.799Z,70.11
2023-12-18T13:15:32.471Z,69.28
2023-12-18T13:18:06.095Z,69.66
2023-12-18T13:20:36.587Z,73.01
2023-12-18T13:23:05.386Z,71.98
2023-12-18T13:25:33.652Z,70.27
2023-12-18T13:28:02.272Z,74.31
2023-12-18T13:30:30.622Z,73.48
2023-12-18T13:32:59.339Z,73.21
2023-12-18T13:35:27.977Z,73.13
2023-12-18T13:37:58.105Z,69.69
2023-12-18T13:40:30.923Z,68.13
2023-12-18T13:43:02.673Z,68.77
2023-12-18T13:45:30.998Z,72.94
2023-12-18T13:48:09.641Z,68.22
2023-12-18T13:50:39.646Z,69.46
2023-12-18T13:53:09.297Z,70.47
2023-12-18T13:55:40.332Z,68.62
2023-12-18T13:58:08.721Z,68.02
2023-12-18T14:00:37.187Z,69.74
2023-12-18T14:03:07.374Z,68.96
2023-12-18T14:05:38.987Z,68.16
2023-12-18T14:08:11.774Z,70.18
2023-12-18T14:10:40.121Z,69.52
2023-12-18T14:13:17.741Z,69.25
2023-12-18T14:15:46.761Z,68.94
2023-12-18T14:18:16.910Z,68.71
2023-12-18T14:20:46.854Z,67.33
2023-12-18T14:23:24.102Z,71.25
2023-12-18T14:25:52.843Z,74.19
2023-12-18T14:28:24.531Z,70.62
2023-12-18T14:30:55.219Z,68.88
2023-12-18T14:33:23.779Z,71.27
2023-12-18T14:35:52.690Z,72.10
2023-12-18T14:38:34.325Z,72.16
2023-12-18T14:41:07.428Z,68.09
2023-12-18T14:43:45.394Z,71.54
2023-12-18T14:46:14.565Z,70.90
2023-12-18T14:48:47.700Z,71.97
2023-12-18T14:51:16.166Z,68.28
2023-12-18T14:53:45.861Z,71.61
2023-12-18T14:56:23.906Z,72.00
2023-12-18T14:58:59.442Z,72.43
2023-12-18T15:01:33.547Z,71.30
2023-12-18T15:04:12.702Z,70.08
2023-12-18T15:06:44.748Z,70.97
2023-12-18T15:09:20.539Z,72.42
2023-12-18T15:11:49.221Z,71.30
2023-12-18T15:14:23.206Z,68.82
2023-12-18T15:16:51.883Z,67.27
2023-12-18T15:19:26.257Z,67.16
2023-12-18T15:21:57.186Z,68.75
2023-12-18T15:24:32.740Z,69.19
2023-12-18T15:27:04.531Z,72.30
2023-12-18T15:29:33.078Z,72.43
2023-12-18T15:32:01.470Z,69.12
2023-12-18T15:34:32.734Z,71.64
2023-12-18T15:37:01.926Z,73.75
2023-12-18T15:39:30.459Z,70.09
2023-12-18T15:42:07.194Z,72.52
2023-12-18T15:44:39.164Z,70.87
2023-12-18T15:47:14.875Z,73.21
2023-12-18T15:49:49.804Z,71.88
2023-12-18T15:52:21.504Z,71.23
2023-12-18T15:54:59.278Z,70.60
2023-12-18T15:57:35.326Z,69.70
2023-12-18T16:00:08.513Z,70.72
2023-12-18T16:02:49.597Z,72.61
2023-12-18T16:05:30.280Z,73.06
2023-12-18T16:07:58.905Z,71.21
2023-12-18T16:10:27.442Z,68.29
2023-12-18T16:12:57.433Z,66.30
2023-12-18T16:15:29.145Z,71.19
2023-12-18T16:18:00.834Z,72.19
2023-12-18T16:20:32.338Z,70.66
2023-12-18T16:23:03.722Z,72.62
2023-12-18T16:25:32.016Z,71.10
2023-12-18T16:28:05.431Z,69.75
2023-12-18T16:30:45.128Z,70.75
2023-12-18T16:33:21.605Z,73.99
2023-12-18T16:35:50.311Z,73.55
2023-12-18T16:38:18.918Z,70.49
2023-12-18T16:40:51.997Z,72.41
2023-12-18T16:43:27.761Z,72.35
2023-12-18T16:45:56.411Z,71.65
2023-12-18T16:48:25.080Z,73.81
2023-12-18T16:50:54.175Z,74.20
2023-12-18T16:53:22.724Z,75.39
2023-12-18T16:55:51.573Z,73.90
2023-12-18T16:58:20.148Z,73.38
2023-12-18T17:00:52.532Z,73.38
2023-12-18T17:03:24.012Z,71.82
2023-12-18T17:05:52.710Z,69.20
2023-12-18T17:08:21.216Z,70.62
2023-12-18T17:10:52.412Z,71.02
2023-12-18T17:13:20.751Z,73.00
2023-12-18T17:15:52.991Z,71.99
2023-12-18T17:18:24.454Z,73.77
2023-12-18T17:20:53.094Z,71.99
2023-12-18T17:23:23.179Z,74.95
2023-12-18T17:25:51.533Z,73.84
2023-12-18T17:28:20.023Z,73.38
2023-12-18T17:30:52.517Z,72.20
2023-12-18T17:33:21.127Z,71.85
2023-12-18T17:35:52.729Z,69.89
2023-12-18T17:38:24.704Z,68.67
2023-12-18T17:40:53.215Z,68.99
2023-12-18T17:43:24.732Z,69.86
2023-12-18T17:45:54.885Z,70.42
2023-12-18T17:48:23.319Z,73.08
2023-12-18T17:50:51.675Z,70.30
2023-12-18T17:53:23.256Z,68.85
2023-12-18T17:56:01.890Z,68.61
2023-12-18T17:58:30.198Z,69.54
2023-12-18T18:01:03.023Z,67.29
2023-12-18T18:03:40.985Z,66.54
2023-12-18T18:06:09.768Z,70.25
2023-12-18T18:08:50.200Z,68.86
2023-12-18T18:11:24.638Z,69.56
2023-12-18T18:13:59.284Z,72.16
2023-12-18T18:16:28.935Z,71.68
2023-12-18T18:18:57.551Z,69.26
2023-12-18T18:21:25.926Z,67.79
2023-12-18T18:24:03.483Z,66.59
2023-12-18T18:26:31.829Z,66.35
2023-12-18T18:29:00.110Z,68.17
2023-12-18T18:31:29.983Z,69.05
2023-12-18T18:34:02.432Z,70.17
2023-12-18T18:36:42.108Z,70.42
2023-12-18T18:39:14.328Z,72.61
2023-12-18T18:41:46.143Z,73.01
2023-12-18T18:44:14.425Z,69.94
2023-12-18T18:46:44.099Z,68.07
2023-12-18T18:49:13.275Z,66.23
2023-12-18T18:51:41.932Z,65.32
2023-12-18T18:54:13.530Z,72.81
2023-12-18T18:56:48.473Z,71.97
2023-12-18T18:59:19.504Z,72.14
2023-12-18T19:01:49.353Z,69.87
2023-12-18T19:04:21.008Z,68.45
2023-12-18T19:06:49.484Z,66.98
2023-12-18T19:09:17.807Z,69.67
2023-12-18T19:11:48.276Z,70.99
2023-12-18T19:14:16.847Z,69.98
2023-12-18T19:16:52.964Z,69.73
2023-12-18T19:19:30.452Z,72.62
2023-12-18T19:22:05.409Z,71.99
2023-12-18T19:24:34.027Z,68.52
2023-12-18T19:27:08.268Z,70.99
2023-12-18T19:29:39.693Z,69.97
2023-12-18T19:32:09.310Z,71.09
2023-12-18T19:34:37.662Z,72.21
2023-12-18T19:37:09.690Z,71.46
2023-12-18T19:39:43.481Z,69.25
2023-12-18T19:42:11.793Z,70.90
2023-12-18T19:44:42.917Z,68.58
2023-12-18T19:47:12.573Z,70.44
2023-12-18T19:49:41.599Z,69.70
2023-12-18T19:52:14.673Z,69.93
2023-12-18T19:54:52.173Z,69.38
2023-12-18T19:57:22.238Z,69.50
2023-12-18T19:59:53.403Z,67.92
2023-12-18T20:02:25.054Z,67.84
2023-12-18T20:04:53.307Z,69.67
2023-12-18T20:07:31.495Z,70.85
2023-12-18T20:10:12.721Z,69.72
2023-12-18T20:12:41.269Z,72.98
2023-12-18T20:15:15.749Z,67.93
2023-12-18T20:17:45.475Z,70.46
2023-12-18T20:20:17.096Z,67.66
2023-12-18T20:22:51.402Z,71.76
2023-12-18T20:25:19.702Z,70.21
2023-12-18T20:27:51.089Z,68.69
2023-12-18T20:30:22.306Z,67.03
2023-12-18T20:32:55.366Z,71.71
2023-12-18T20:35:23.659Z,72.07
2023-12-18T20:37:54.856Z,69.25
2023-12-18T20:40:23.466Z,71.16
2023-12-18T20:42:51.871Z,68.40
2023-12-18T20:45:20.193Z,67.57
2023-12-18T20:47:49.197Z,68.13
2023-12-18T20:50:18.989Z,67.51
2023-12-18T20:52:50.067Z,67.27
2023-12-18T20:55:32.282Z,67.41
2023-12-18T20:58:00.710Z,69.43
2023-12-18T21:00:32.667Z,67.85
2023-12-18T21:03:09.020Z,67.31
2023-12-18T21:05:39.268Z,69.03
2023-12-18T21:08:15.062Z,67.04
2023-12-18T21:10:52.425Z,65.51
2023-12-18T21:13:21.601Z,67.01
2023-12-18T21:15:55.431Z,65.42
2023-12-18T21:18:23.835Z,67.02
2023-12-18T21:21:07.143Z,68.90
2023-12-18T21:23:38.345Z,70.76
2023-12-18T21:26:13.020Z,69.99
2023-12-18T21:28:47.191Z,68.67
2023-12-18T21:31:21.435Z,70.28
2023-12-18T21:33:52.914Z,71.20
2023-12-18T21:36:28.840Z,70.38
2023-12-18T21:39:00.231Z,69.25
2023-12-18T21:41:47.489Z,69.47
2023-12-18T21:44:22.207Z,70.37
2023-12-18T21:46:50.553Z,75.62
2023-12-18T21:49:18.946Z,73.16
2023-12-18T21:51:54.713Z,68.25
2023-12-18T21:54:23.609Z,70.37
2023-12-18T21:56:55.011Z,73.27
2023-12-18T21:59:25.755Z,69.90
2023-12-18T22:02:03.179Z,72.03
2023-12-18T22:04:34.881Z,69.72
2023-12-18T22:07:04.782Z,68.32
2023-12-18T22:09:40.499Z,68.74
2023-12-18T22:12:09.528Z,70.33
2023-12-18T22:14:44.908Z,69.42
2023-12-18T22:17:16.386Z,71.24
2023-12-18T22:19:45.012Z,66.83
2023-12-18T22:22:14.984Z,69.92
2023-12-18T22:24:43.304Z,68.92
2023-12-18T22:27:11.570Z,67.77
2023-12-18T22:29:43.144Z,71.40
2023-12-18T22:32:11.788Z,71.75
2023-12-18T22:34:46.129Z,72.04
2023-12-18T22:37:16.002Z,72.01
2023-12-18T22:39:44.335Z,72.79
2023-12-18T22:42:12.708Z,72.82
2023-12-18T22:44:41.032Z,69.53
2023-12-18T22:47:15.423Z,72.26
2023-12-18T22:49:44.943Z,71.09
2023-12-18T22:52:13.360Z,67.93
2023-12-18T22:54:49.148Z,65.68
2023-12-18T22:57:24.092Z,66.48
2023-12-18T23:00:01.926Z,65.50
2023-12-18T23:02:33.391Z,66.48
2023-12-18T23:05:05.124Z,70.98
2023-12-18T23:07:40.041Z,75.02
2023-12-18T23:10:10.955Z,70.17
2023-12-18T23:12:43.029Z,70.66
2023-12-18T23:15:12.167Z,66.27
2023-12-18T23:17:43.787Z,73.60
2023-12-18T23:20:18.504Z,71.47
2023-12-18T23:22:50.069Z,65.66
2023-12-18T23:25:20.035Z,67.89
2023-12-18T23:27:48.652Z,67.39
2023-12-18T23:30:17.449Z,66.33
2023-12-18T23:32:52.318Z,71.75
2023-12-18T23:35:23.825Z,75.14
2023-12-18T23:37:58.288Z,71.22
2023-12-18T23:40:34.181Z,72.47
2023-12-18T23:43:09.272Z,74.01
2023-12-18T23:45:38.273Z,73.19
2023-12-18T23:48:13.391Z,74.54
2023-12-18T23:50:48.185Z,69.23
2023-12-18T23:53:22.946Z,74.86
2023-12-18T23:55:55.335Z,73.58
2023-12-18T23:58:23.635Z,71.59
